sensor_id;sensor_type;location;lat;lon;timestamp;P1;durP1;ratioP1;P2;durP2;ratioP2
71456;SDS011;59263;48.160;11.752;2022-07-23T00:00:26;9.87;;;4.70;;
71456;SDS011;59263;48.160;11.752;2022-07-23T00:02:52;9.20;;;4.55;;
71456;SDS011;59263;48.160;11.752;2022-07-23T00:05:17;10.17;;;4.50;;
71456;SDS011;59263;48.160;11.752;2022-07-23T00:07:42;9.70;;;5.00;;
71456;SDS011;59263;48.160;11.752;2022-07-23T00:10:08;8.90;;;4.43;;
71456;SDS011;59263;48.160;11.752;2022-07-23T00:12:33;9.03;;;4.60;;
71456;SDS011;59263;48.160;11.752;2022-07-23T00:14:59;12.03;;;4.80;;
71456;SDS011;59263;48.160;11.752;2022-07-23T00:17:24;10.23;;;4.70;;
71456;SDS011;59263;48.160;11.752;2022-07-23T00:19:50;9.73;;;4.77;;
71456;SDS011;59263;48.160;11.752;2022-07-23T00:22:15;10.27;;;4.77;;
71456;SDS011;59263;48.160;11.752;2022-07-23T00:24:40;9.50;;;4.30;;
71456;SDS011;59263;48.160;11.752;2022-07-23T00:27:06;10.20;;;4.50;;
71456;SDS011;59263;48.160;11.752;2022-07-23T00:29:31;9.33;;;4.27;;
71456;SDS011;59263;48.160;11.752;2022-07-23T00:31:56;9.33;;;4.60;;
71456;SDS011;59263;48.160;11.752;2022-07-23T00:34:22;9.70;;;4.63;;
71456;SDS011;59263;48.160;11.752;2022-07-23T00:36:47;8.70;;;4.40;;
71456;SDS011;59263;48.160;11.752;2022-07-23T00:39:12;8.30;;;4.07;;
71456;SDS011;59263;48.160;11.752;2022-07-23T00:41:37;12.30;;;4.40;;
71456;SDS011;59263;48.160;11.752;2022-07-23T00:44:15;10.13;;;4.07;;
71456;SDS011;59263;48.160;11.752;2022-07-23T00:46:46;10.93;;;4.90;;
71456;SDS011;59263;48.160;11.752;2022-07-23T00:49:14;8.90;;;4.45;;
71456;SDS011;59263;48.160;11.752;2022-07-23T00:51:39;11.90;;;5.70;;
71456;SDS011;59263;48.160;11.752;2022-07-23T00:54:05;9.85;;;5.13;;
71456;SDS011;59263;48.160;11.752;2022-07-23T00:56:30;9.60;;;4.90;;
71456;SDS011;59263;48.160;11.752;2022-07-23T00:58:56;9.43;;;4.70;;
71456;SDS011;59263;48.160;11.752;2022-07-23T01:01:22;9.90;;;4.35;;
71456;SDS011;59263;48.160;11.752;2022-07-23T01:03:47;8.70;;;4.27;;
71456;SDS011;59263;48.160;11.752;2022-07-23T01:06:12;9.90;;;4.53;;
71456;SDS011;59263;48.160;11.752;2022-07-23T01:08:38;10.18;;;5.03;;
71456;SDS011;59263;48.160;11.752;2022-07-23T01:11:04;10.17;;;4.93;;
71456;SDS011;59263;48.160;11.752;2022-07-23T01:13:30;11.80;;;5.15;;
71456;SDS011;59263;48.160;11.752;2022-07-23T01:15:55;11.50;;;4.57;;
71456;SDS011;59263;48.160;11.752;2022-07-23T01:18:20;9.70;;;4.40;;
71456;SDS011;59263;48.160;11.752;2022-07-23T01:20:46;10.93;;;5.13;;
71456;SDS011;59263;48.160;11.752;2022-07-23T01:23:11;11.07;;;4.83;;
71456;SDS011;59263;48.160;11.752;2022-07-23T01:25:36;12.57;;;5.00;;
71456;SDS011;59263;48.160;11.752;2022-07-23T01:28:02;11.17;;;4.83;;
71456;SDS011;59263;48.160;11.752;2022-07-23T01:30:27;13.13;;;5.40;;
71456;SDS011;59263;48.160;11.752;2022-07-23T01:32:53;13.40;;;6.87;;
71456;SDS011;59263;48.160;11.752;2022-07-23T01:35:18;16.03;;;6.03;;
71456;SDS011;59263;48.160;11.752;2022-07-23T01:37:43;14.80;;;6.37;;
71456;SDS011;59263;48.160;11.752;2022-07-23T01:40:09;23.43;;;7.20;;
71456;SDS011;59263;48.160;11.752;2022-07-23T01:42:34;23.55;;;6.53;;
71456;SDS011;59263;48.160;11.752;2022-07-23T01:45:01;19.48;;;5.90;;
71456;SDS011;59263;48.160;11.752;2022-07-23T01:47:26;12.03;;;5.53;;
71456;SDS011;59263;48.160;11.752;2022-07-23T01:49:52;15.73;;;5.37;;
71456;SDS011;59263;48.160;11.752;2022-07-23T01:52:17;18.87;;;5.40;;
71456;SDS011;59263;48.160;11.752;2022-07-23T01:54:42;12.93;;;4.43;;
71456;SDS011;59263;48.160;11.752;2022-07-23T01:57:08;11.43;;;5.22;;
71456;SDS011;59263;48.160;11.752;2022-07-23T01:59:33;9.63;;;3.90;;
71456;SDS011;59263;48.160;11.752;2022-07-23T02:01:59;13.00;;;4.00;;
71456;SDS011;59263;48.160;11.752;2022-07-23T02:04:25;8.87;;;3.73;;
71456;SDS011;59263;48.160;11.752;2022-07-23T02:06:51;11.10;;;3.43;;
71456;SDS011;59263;48.160;11.752;2022-07-23T02:09:17;8.48;;;3.67;;
71456;SDS011;59263;48.160;11.752;2022-07-23T02:11:42;8.23;;;3.37;;
71456;SDS011;59263;48.160;11.752;2022-07-23T02:14:08;9.93;;;3.40;;
71456;SDS011;59263;48.160;11.752;2022-07-23T02:16:33;9.17;;;3.40;;
71456;SDS011;59263;48.160;11.752;2022-07-23T02:18:59;8.67;;;3.60;;
71456;SDS011;59263;48.160;11.752;2022-07-23T02:21:24;9.57;;;3.70;;
71456;SDS011;59263;48.160;11.752;2022-07-23T02:23:50;10.77;;;3.40;;
71456;SDS011;59263;48.160;11.752;2022-07-23T02:26:15;10.00;;;3.10;;
71456;SDS011;59263;48.160;11.752;2022-07-23T02:28:40;9.60;;;3.10;;
71456;SDS011;59263;48.160;11.752;2022-07-23T02:31:06;9.77;;;3.40;;
71456;SDS011;59263;48.160;11.752;2022-07-23T02:33:31;9.60;;;3.37;;
71456;SDS011;59263;48.160;11.752;2022-07-23T02:35:57;9.80;;;2.87;;
71456;SDS011;59263;48.160;11.752;2022-07-23T02:38:23;9.80;;;3.03;;
71456;SDS011;59263;48.160;11.752;2022-07-23T02:40:48;7.87;;;2.90;;
71456;SDS011;59263;48.160;11.752;2022-07-23T02:43:13;7.67;;;2.60;;
71456;SDS011;59263;48.160;11.752;2022-07-23T02:45:39;7.10;;;2.70;;
71456;SDS011;59263;48.160;11.752;2022-07-23T02:48:04;7.50;;;2.07;;
71456;SDS011;59263;48.160;11.752;2022-07-23T02:50:30;7.67;;;2.33;;
71456;SDS011;59263;48.160;11.752;2022-07-23T02:52:55;6.38;;;2.20;;
71456;SDS011;59263;48.160;11.752;2022-07-23T02:55:20;7.60;;;2.00;;
71456;SDS011;59263;48.160;11.752;2022-07-23T02:57:46;6.97;;;2.60;;
71456;SDS011;59263;48.160;11.752;2022-07-23T03:00:11;9.10;;;2.30;;
71456;SDS011;59263;48.160;11.752;2022-07-23T03:02:37;7.83;;;2.47;;
71456;SDS011;59263;48.160;11.752;2022-07-23T03:05:02;6.95;;;2.28;;
71456;SDS011;59263;48.160;11.752;2022-07-23T03:07:28;9.10;;;3.00;;
71456;SDS011;59263;48.160;11.752;2022-07-23T03:09:53;8.30;;;2.80;;
71456;SDS011;59263;48.160;11.752;2022-07-23T03:12:18;7.33;;;2.90;;
71456;SDS011;59263;48.160;11.752;2022-07-23T03:14:44;11.70;;;2.90;;
71456;SDS011;59263;48.160;11.752;2022-07-23T03:17:09;8.27;;;2.80;;
71456;SDS011;59263;48.160;11.752;2022-07-23T03:19:34;7.63;;;2.50;;
71456;SDS011;59263;48.160;11.752;2022-07-23T03:22:01;9.55;;;2.50;;
71456;SDS011;59263;48.160;11.752;2022-07-23T03:24:27;8.73;;;3.00;;
71456;SDS011;59263;48.160;11.752;2022-07-23T03:27:12;8.13;;;2.65;;
71456;SDS011;59263;48.160;11.752;2022-07-23T03:29:37;7.83;;;2.70;;
71456;SDS011;59263;48.160;11.752;2022-07-23T03:32:03;9.67;;;3.13;;
71456;SDS011;59263;48.160;11.752;2022-07-23T03:34:29;9.18;;;2.65;;
71456;SDS011;59263;48.160;11.752;2022-07-23T03:36:54;8.87;;;3.00;;
71456;SDS011;59263;48.160;11.752;2022-07-23T03:39:19;8.33;;;2.90;;
71456;SDS011;59263;48.160;11.752;2022-07-23T03:41:45;9.13;;;3.40;;
71456;SDS011;59263;48.160;11.752;2022-07-23T03:44:10;8.43;;;3.77;;
71456;SDS011;59263;48.160;11.752;2022-07-23T03:46:35;9.17;;;3.37;;
71456;SDS011;59263;48.160;11.752;2022-07-23T03:49:01;10.50;;;3.53;;
71456;SDS011;59263;48.160;11.752;2022-07-23T03:51:26;8.90;;;3.30;;
71456;SDS011;59263;48.160;11.752;2022-07-23T03:53:51;8.90;;;3.60;;
71456;SDS011;59263;48.160;11.752;2022-07-23T03:56:17;10.97;;;3.87;;
71456;SDS011;59263;48.160;11.752;2022-07-23T03:58:42;8.67;;;3.50;;
71456;SDS011;59263;48.160;11.752;2022-07-23T04:01:07;8.63;;;3.70;;
71456;SDS011;59263;48.160;11.752;2022-07-23T04:03:33;9.90;;;3.83;;
71456;SDS011;59263;48.160;11.752;2022-07-23T04:05:58;9.70;;;4.10;;
71456;SDS011;59263;48.160;11.752;2022-07-23T04:08:23;8.90;;;3.80;;
71456;SDS011;59263;48.160;11.752;2022-07-23T04:10:50;9.07;;;3.83;;
71456;SDS011;59263;48.160;11.752;2022-07-23T04:13:15;11.73;;;4.27;;
71456;SDS011;59263;48.160;11.752;2022-07-23T04:15:40;12.23;;;4.00;;
71456;SDS011;59263;48.160;11.752;2022-07-23T04:18:06;9.13;;;4.13;;
71456;SDS011;59263;48.160;11.752;2022-07-23T04:20:31;9.67;;;4.07;;
71456;SDS011;59263;48.160;11.752;2022-07-23T04:22:56;13.00;;;4.00;;
71456;SDS011;59263;48.160;11.752;2022-07-23T04:25:21;9.97;;;4.17;;
71456;SDS011;59263;48.160;11.752;2022-07-23T04:27:47;9.20;;;4.17;;
71456;SDS011;59263;48.160;11.752;2022-07-23T04:30:12;10.67;;;4.10;;
71456;SDS011;59263;48.160;11.752;2022-07-23T04:32:37;9.13;;;4.27;;
71456;SDS011;59263;48.160;11.752;2022-07-23T04:35:03;9.00;;;4.33;;
71456;SDS011;59263;48.160;11.752;2022-07-23T04:37:28;10.90;;;4.20;;
71456;SDS011;59263;48.160;11.752;2022-07-23T04:39:54;9.07;;;4.33;;
71456;SDS011;59263;48.160;11.752;2022-07-23T04:42:19;9.63;;;4.57;;
71456;SDS011;59263;48.160;11.752;2022-07-23T04:44:44;9.97;;;4.13;;
71456;SDS011;59263;48.160;11.752;2022-07-23T04:47:10;9.73;;;4.50;;
71456;SDS011;59263;48.160;11.752;2022-07-23T04:49:35;10.18;;;4.85;;
71456;SDS011;59263;48.160;11.752;2022-07-23T04:52:01;8.93;;;4.40;;
71456;SDS011;59263;48.160;11.752;2022-07-23T04:54:26;11.60;;;5.20;;
71456;SDS011;59263;48.160;11.752;2022-07-23T04:56:51;9.83;;;4.30;;
71456;SDS011;59263;48.160;11.752;2022-07-23T04:59:16;9.43;;;4.23;;
71456;SDS011;59263;48.160;11.752;2022-07-23T05:01:42;10.37;;;4.57;;
71456;SDS011;59263;48.160;11.752;2022-07-23T05:04:07;11.17;;;4.77;;
71456;SDS011;59263;48.160;11.752;2022-07-23T05:06:32;9.43;;;4.47;;
71456;SDS011;59263;48.160;11.752;2022-07-23T05:08:58;10.30;;;4.63;;
71456;SDS011;59263;48.160;11.752;2022-07-23T05:11:23;10.43;;;4.60;;
71456;SDS011;59263;48.160;11.752;2022-07-23T05:13:48;11.67;;;5.20;;
71456;SDS011;59263;48.160;11.752;2022-07-23T05:16:14;13.40;;;5.07;;
71456;SDS011;59263;48.160;11.752;2022-07-23T05:18:39;12.60;;;5.30;;
71456;SDS011;59263;48.160;11.752;2022-07-23T05:21:04;9.37;;;4.77;;
71456;SDS011;59263;48.160;11.752;2022-07-23T05:23:30;10.15;;;5.43;;
71456;SDS011;59263;48.160;11.752;2022-07-23T05:25:55;10.73;;;4.63;;
71456;SDS011;59263;48.160;11.752;2022-07-23T05:28:20;12.50;;;4.67;;
71456;SDS011;59263;48.160;11.752;2022-07-23T05:30:46;12.23;;;4.87;;
71456;SDS011;59263;48.160;11.752;2022-07-23T05:33:11;9.73;;;4.80;;
71456;SDS011;59263;48.160;11.752;2022-07-23T05:35:36;11.57;;;5.07;;
71456;SDS011;59263;48.160;11.752;2022-07-23T05:38:01;11.10;;;5.07;;
71456;SDS011;59263;48.160;11.752;2022-07-23T05:40:27;13.07;;;5.47;;
71456;SDS011;59263;48.160;11.752;2022-07-23T05:42:52;10.60;;;4.77;;
71456;SDS011;59263;48.160;11.752;2022-07-23T05:45:17;13.50;;;5.27;;
71456;SDS011;59263;48.160;11.752;2022-07-23T05:47:43;10.53;;;4.90;;
71456;SDS011;59263;48.160;11.752;2022-07-23T05:50:10;10.80;;;4.93;;
71456;SDS011;59263;48.160;11.752;2022-07-23T05:52:35;10.23;;;5.13;;
71456;SDS011;59263;48.160;11.752;2022-07-23T05:55:01;11.43;;;5.43;;
71456;SDS011;59263;48.160;11.752;2022-07-23T05:57:26;11.20;;;5.27;;
71456;SDS011;59263;48.160;11.752;2022-07-23T05:59:51;11.00;;;5.23;;
71456;SDS011;59263;48.160;11.752;2022-07-23T06:02:17;9.20;;;4.60;;
71456;SDS011;59263;48.160;11.752;2022-07-23T06:04:42;9.63;;;4.83;;
71456;SDS011;59263;48.160;11.752;2022-07-23T06:07:07;10.43;;;4.70;;
71456;SDS011;59263;48.160;11.752;2022-07-23T06:09:33;8.60;;;4.37;;
71456;SDS011;59263;48.160;11.752;2022-07-23T06:11:58;11.03;;;4.93;;
71456;SDS011;59263;48.160;11.752;2022-07-23T06:14:23;11.73;;;5.23;;
71456;SDS011;59263;48.160;11.752;2022-07-23T06:16:49;11.83;;;5.33;;
71456;SDS011;59263;48.160;11.752;2022-07-23T06:19:14;10.37;;;5.27;;
71456;SDS011;59263;48.160;11.752;2022-07-23T06:21:39;9.30;;;4.80;;
71456;SDS011;59263;48.160;11.752;2022-07-23T06:24:05;9.97;;;4.77;;
71456;SDS011;59263;48.160;11.752;2022-07-23T06:26:30;10.37;;;5.20;;
71456;SDS011;59263;48.160;11.752;2022-07-23T06:28:56;12.90;;;5.53;;
71456;SDS011;59263;48.160;11.752;2022-07-23T06:31:21;9.87;;;4.50;;
71456;SDS011;59263;48.160;11.752;2022-07-23T06:33:46;11.50;;;5.23;;
71456;SDS011;59263;48.160;11.752;2022-07-23T06:36:11;12.10;;;5.50;;
71456;SDS011;59263;48.160;11.752;2022-07-23T06:38:37;9.60;;;5.20;;
71456;SDS011;59263;48.160;11.752;2022-07-23T06:41:02;11.37;;;5.50;;
71456;SDS011;59263;48.160;11.752;2022-07-23T06:43:29;12.53;;;5.17;;
71456;SDS011;59263;48.160;11.752;2022-07-23T06:45:55;11.13;;;5.38;;
71456;SDS011;59263;48.160;11.752;2022-07-23T06:48:20;10.57;;;4.70;;
71456;SDS011;59263;48.160;11.752;2022-07-23T06:50:47;10.13;;;5.50;;
71456;SDS011;59263;48.160;11.752;2022-07-23T06:53:12;10.50;;;5.30;;
71456;SDS011;59263;48.160;11.752;2022-07-23T06:55:37;11.53;;;5.63;;
71456;SDS011;59263;48.160;11.752;2022-07-23T06:58:03;10.27;;;5.72;;
71456;SDS011;59263;48.160;11.752;2022-07-23T07:00:29;10.03;;;5.40;;
71456;SDS011;59263;48.160;11.752;2022-07-23T07:02:56;10.82;;;5.38;;
71456;SDS011;59263;48.160;11.752;2022-07-23T07:05:21;9.77;;;4.85;;
71456;SDS011;59263;48.160;11.752;2022-07-23T07:07:48;12.90;;;5.37;;
71456;SDS011;59263;48.160;11.752;2022-07-23T07:10:13;11.50;;;5.43;;
71456;SDS011;59263;48.160;11.752;2022-07-23T07:12:41;13.13;;;5.67;;
71456;SDS011;59263;48.160;11.752;2022-07-23T07:15:06;10.50;;;5.22;;
71456;SDS011;59263;48.160;11.752;2022-07-23T07:17:32;11.47;;;5.03;;
71456;SDS011;59263;48.160;11.752;2022-07-23T07:19:57;10.40;;;4.63;;
71456;SDS011;59263;48.160;11.752;2022-07-23T07:22:22;10.63;;;5.47;;
71456;SDS011;59263;48.160;11.752;2022-07-23T07:24:48;9.10;;;4.93;;
71456;SDS011;59263;48.160;11.752;2022-07-23T07:27:13;11.87;;;5.27;;
71456;SDS011;59263;48.160;11.752;2022-07-23T07:29:38;10.30;;;4.97;;
71456;SDS011;59263;48.160;11.752;2022-07-23T07:32:04;14.53;;;5.10;;
71456;SDS011;59263;48.160;11.752;2022-07-23T07:34:29;12.13;;;5.10;;
71456;SDS011;59263;48.160;11.752;2022-07-23T07:36:55;9.33;;;4.90;;
71456;SDS011;59263;48.160;11.752;2022-07-23T07:39:20;9.27;;;4.57;;
71456;SDS011;59263;48.160;11.752;2022-07-23T07:41:45;11.00;;;5.13;;
71456;SDS011;59263;48.160;11.752;2022-07-23T07:44:10;10.13;;;4.70;;
71456;SDS011;59263;48.160;11.752;2022-07-23T07:46:36;10.73;;;5.10;;
71456;SDS011;59263;48.160;11.752;2022-07-23T07:49:01;10.73;;;5.03;;
71456;SDS011;59263;48.160;11.752;2022-07-23T07:51:26;9.70;;;5.20;;
71456;SDS011;59263;48.160;11.752;2022-07-23T07:53:52;9.67;;;4.87;;
71456;SDS011;59263;48.160;11.752;2022-07-23T07:56:17;11.20;;;5.40;;
71456;SDS011;59263;48.160;11.752;2022-07-23T07:58:42;10.77;;;5.30;;
71456;SDS011;59263;48.160;11.752;2022-07-23T08:01:08;11.70;;;6.47;;
71456;SDS011;59263;48.160;11.752;2022-07-23T08:03:33;10.63;;;5.40;;
71456;SDS011;59263;48.160;11.752;2022-07-23T08:05:58;10.57;;;5.30;;
71456;SDS011;59263;48.160;11.752;2022-07-23T08:08:24;11.00;;;5.43;;
71456;SDS011;59263;48.160;11.752;2022-07-23T08:10:50;10.20;;;5.17;;
71456;SDS011;59263;48.160;11.752;2022-07-23T08:13:15;10.13;;;5.60;;
71456;SDS011;59263;48.160;11.752;2022-07-23T08:15:42;11.07;;;6.00;;
71456;SDS011;59263;48.160;11.752;2022-07-23T08:18:08;9.90;;;5.38;;
71456;SDS011;59263;48.160;11.752;2022-07-23T08:20:33;11.05;;;5.40;;
71456;SDS011;59263;48.160;11.752;2022-07-23T08:23:00;10.07;;;5.47;;
71456;SDS011;59263;48.160;11.752;2022-07-23T08:25:29;10.35;;;5.05;;
71456;SDS011;59263;48.160;11.752;2022-07-23T08:28:00;13.65;;;5.75;;
71456;SDS011;59263;48.160;11.752;2022-07-23T08:30:28;9.87;;;4.93;;
71456;SDS011;59263;48.160;11.752;2022-07-23T08:32:56;10.82;;;5.50;;
71456;SDS011;59263;48.160;11.752;2022-07-23T08:35:28;10.13;;;5.43;;
71456;SDS011;59263;48.160;11.752;2022-07-23T08:37:58;11.32;;;5.57;;
71456;SDS011;59263;48.160;11.752;2022-07-23T08:40:29;11.55;;;5.70;;
71456;SDS011;59263;48.160;11.752;2022-07-23T08:42:56;10.40;;;5.30;;
71456;SDS011;59263;48.160;11.752;2022-07-23T08:45:22;10.13;;;5.53;;
71456;SDS011;59263;48.160;11.752;2022-07-23T08:47:52;11.25;;;5.68;;
71456;SDS011;59263;48.160;11.752;2022-07-23T08:50:20;10.30;;;5.93;;
71456;SDS011;59263;48.160;11.752;2022-07-23T08:52:48;10.75;;;5.40;;
71456;SDS011;59263;48.160;11.752;2022-07-23T08:55:16;11.45;;;5.72;;
71456;SDS011;59263;48.160;11.752;2022-07-23T08:57:47;11.13;;;5.68;;
71456;SDS011;59263;48.160;11.752;2022-07-23T09:00:14;10.70;;;5.03;;
71456;SDS011;59263;48.160;11.752;2022-07-23T09:02:41;10.07;;;5.60;;
71456;SDS011;59263;48.160;11.752;2022-07-23T09:05:08;10.27;;;5.55;;
71456;SDS011;59263;48.160;11.752;2022-07-23T09:07:36;11.40;;;5.28;;
71456;SDS011;59263;48.160;11.752;2022-07-23T09:10:06;10.55;;;5.10;;
71456;SDS011;59263;48.160;11.752;2022-07-23T09:12:36;11.07;;;5.10;;
71456;SDS011;59263;48.160;11.752;2022-07-23T09:15:05;10.80;;;5.50;;
71456;SDS011;59263;48.160;11.752;2022-07-23T09:17:39;10.70;;;5.28;;
71456;SDS011;59263;48.160;11.752;2022-07-23T09:20:10;10.02;;;5.35;;
71456;SDS011;59263;48.160;11.752;2022-07-23T09:22:38;9.55;;;5.18;;
71456;SDS011;59263;48.160;11.752;2022-07-23T09:25:09;10.33;;;5.60;;
71456;SDS011;59263;48.160;11.752;2022-07-23T09:30:21;10.50;;;5.55;;
71456;SDS011;59263;48.160;11.752;2022-07-23T09:35:43;9.68;;;4.90;;
71456;SDS011;59263;48.160;11.752;2022-07-23T09:38:12;9.63;;;5.40;;
71456;SDS011;59263;48.160;11.752;2022-07-23T09:40:37;10.63;;;5.30;;
71456;SDS011;59263;48.160;11.752;2022-07-23T09:43:03;11.37;;;5.37;;
71456;SDS011;59263;48.160;11.752;2022-07-23T09:45:28;11.60;;;5.57;;
71456;SDS011;59263;48.160;11.752;2022-07-23T09:48:16;11.95;;;5.28;;
71456;SDS011;59263;48.160;11.752;2022-07-23T09:50:42;11.20;;;5.20;;
71456;SDS011;59263;48.160;11.752;2022-07-23T09:53:08;14.38;;;5.38;;
71456;SDS011;59263;48.160;11.752;2022-07-23T09:55:35;10.57;;;5.30;;
71456;SDS011;59263;48.160;11.752;2022-07-23T09:58:03;10.73;;;5.60;;
71456;SDS011;59263;48.160;11.752;2022-07-23T10:00:30;9.77;;;5.75;;
71456;SDS011;59263;48.160;11.752;2022-07-23T10:02:57;10.83;;;5.23;;
71456;SDS011;59263;48.160;11.752;2022-07-23T10:05:24;10.65;;;5.75;;
71456;SDS011;59263;48.160;11.752;2022-07-23T10:07:50;10.07;;;5.65;;
71456;SDS011;59263;48.160;11.752;2022-07-23T10:10:16;10.15;;;5.28;;
71456;SDS011;59263;48.160;11.752;2022-07-23T10:12:43;11.03;;;5.80;;
71456;SDS011;59263;48.160;11.752;2022-07-23T10:15:27;9.52;;;4.93;;
71456;SDS011;59263;48.160;11.752;2022-07-23T10:17:53;9.90;;;5.22;;
71456;SDS011;59263;48.160;11.752;2022-07-23T10:20:19;10.18;;;5.03;;
71456;SDS011;59263;48.160;11.752;2022-07-23T10:22:54;9.97;;;5.23;;
71456;SDS011;59263;48.160;11.752;2022-07-23T10:25:32;9.80;;;4.50;;
71456;SDS011;59263;48.160;11.752;2022-07-23T10:28:14;9.55;;;5.00;;
71456;SDS011;59263;48.160;11.752;2022-07-23T10:34:19;11.52;;;4.78;;
71456;SDS011;59263;48.160;11.752;2022-07-23T10:36:50;9.33;;;4.83;;
71456;SDS011;59263;48.160;11.752;2022-07-23T10:39:33;12.27;;;4.80;;
71456;SDS011;59263;48.160;11.752;2022-07-23T10:42:09;10.48;;;4.88;;
71456;SDS011;59263;48.160;11.752;2022-07-23T10:44:43;11.75;;;4.40;;
71456;SDS011;59263;48.160;11.752;2022-07-23T10:47:11;10.07;;;4.72;;
71456;SDS011;59263;48.160;11.752;2022-07-23T10:49:46;10.23;;;4.90;;
71456;SDS011;59263;48.160;11.752;2022-07-23T10:54:40;9.63;;;4.40;;
71456;SDS011;59263;48.160;11.752;2022-07-23T10:57:07;9.70;;;4.25;;
71456;SDS011;59263;48.160;11.752;2022-07-23T11:02:40;8.65;;;3.80;;
71456;SDS011;59263;48.160;11.752;2022-07-23T11:05:07;9.20;;;4.30;;
71456;SDS011;59263;48.160;11.752;2022-07-23T11:16:20;9.63;;;4.13;;
71456;SDS011;59263;48.160;11.752;2022-07-23T11:32:22;9.07;;;4.07;;
71456;SDS011;59263;48.160;11.752;2022-07-23T11:34:50;8.70;;;4.10;;
71456;SDS011;59263;48.160;11.752;2022-07-23T11:37:37;9.40;;;4.35;;
71456;SDS011;59263;48.160;11.752;2022-07-23T11:40:08;9.02;;;4.45;;
71456;SDS011;59263;48.160;11.752;2022-07-23T11:42:37;9.30;;;4.40;;
71456;SDS011;59263;48.160;11.752;2022-07-23T11:45:07;9.55;;;4.50;;
71456;SDS011;59263;48.160;11.752;2022-07-23T11:47:33;8.33;;;4.07;;
71456;SDS011;59263;48.160;11.752;2022-07-23T11:49:59;8.75;;;4.38;;
71456;SDS011;59263;48.160;11.752;2022-07-23T11:52:27;8.63;;;4.28;;
71456;SDS011;59263;48.160;11.752;2022-07-23T11:55:02;9.17;;;3.93;;
71456;SDS011;59263;48.160;11.752;2022-07-23T11:57:33;9.85;;;4.15;;
71456;SDS011;59263;48.160;11.752;2022-07-23T12:00:05;9.02;;;4.38;;
71456;SDS011;59263;48.160;11.752;2022-07-23T12:02:31;11.00;;;4.53;;
71456;SDS011;59263;48.160;11.752;2022-07-23T12:04:56;10.67;;;4.80;;
71456;SDS011;59263;48.160;11.752;2022-07-23T12:07:32;10.07;;;4.80;;
71456;SDS011;59263;48.160;11.752;2022-07-23T12:10:09;9.93;;;5.30;;
71456;SDS011;59263;48.160;11.752;2022-07-23T12:15:23;10.00;;;5.10;;
71456;SDS011;59263;48.160;11.752;2022-07-23T12:17:52;9.93;;;5.03;;
71456;SDS011;59263;48.160;11.752;2022-07-23T12:20:25;9.27;;;5.03;;
71456;SDS011;59263;48.160;11.752;2022-07-23T12:23:15;11.63;;;5.70;;
71456;SDS011;59263;48.160;11.752;2022-07-23T12:25:42;11.23;;;5.38;;
71456;SDS011;59263;48.160;11.752;2022-07-23T12:28:10;10.50;;;5.70;;
71456;SDS011;59263;48.160;11.752;2022-07-23T12:33:06;10.90;;;5.45;;
71456;SDS011;59263;48.160;11.752;2022-07-23T12:35:34;10.27;;;5.50;;
71456;SDS011;59263;48.160;11.752;2022-07-23T12:38:17;10.60;;;5.55;;
71456;SDS011;59263;48.160;11.752;2022-07-23T12:43:24;12.27;;;6.10;;
71456;SDS011;59263;48.160;11.752;2022-07-23T12:46:02;11.57;;;5.82;;
71456;SDS011;59263;48.160;11.752;2022-07-23T12:48:30;9.65;;;5.50;;
71456;SDS011;59263;48.160;11.752;2022-07-23T12:50:59;11.85;;;5.93;;
71456;SDS011;59263;48.160;11.752;2022-07-23T12:53:30;10.50;;;5.47;;
71456;SDS011;59263;48.160;11.752;2022-07-23T13:04:03;10.85;;;5.40;;
71456;SDS011;59263;48.160;11.752;2022-07-23T13:06:30;11.07;;;5.37;;
71456;SDS011;59263;48.160;11.752;2022-07-23T13:08:57;9.48;;;5.00;;
71456;SDS011;59263;48.160;11.752;2022-07-23T13:11:22;11.13;;;5.75;;
71456;SDS011;59263;48.160;11.752;2022-07-23T13:13:48;10.77;;;5.10;;
71456;SDS011;59263;48.160;11.752;2022-07-23T13:16:14;10.40;;;5.03;;
71456;SDS011;59263;48.160;11.752;2022-07-23T13:18:40;9.47;;;5.00;;
71456;SDS011;59263;48.160;11.752;2022-07-23T13:21:05;10.97;;;5.07;;
71456;SDS011;59263;48.160;11.752;2022-07-23T13:23:30;9.70;;;5.10;;
71456;SDS011;59263;48.160;11.752;2022-07-23T13:25:56;10.38;;;5.15;;
71456;SDS011;59263;48.160;11.752;2022-07-23T13:28:22;10.90;;;5.83;;
71456;SDS011;59263;48.160;11.752;2022-07-23T13:30:48;10.88;;;5.38;;
71456;SDS011;59263;48.160;11.752;2022-07-23T13:33:19;9.70;;;5.13;;
71456;SDS011;59263;48.160;11.752;2022-07-23T13:35:47;10.52;;;5.63;;
71456;SDS011;59263;48.160;11.752;2022-07-23T13:38:13;9.45;;;5.03;;
71456;SDS011;59263;48.160;11.752;2022-07-23T13:40:39;10.47;;;5.00;;
71456;SDS011;59263;48.160;11.752;2022-07-23T13:43:07;10.70;;;5.10;;
71456;SDS011;59263;48.160;11.752;2022-07-23T13:45:33;9.60;;;5.10;;
71456;SDS011;59263;48.160;11.752;2022-07-23T13:47:59;11.17;;;5.37;;
71456;SDS011;59263;48.160;11.752;2022-07-23T13:50:24;11.15;;;5.50;;
71456;SDS011;59263;48.160;11.752;2022-07-23T13:52:50;11.57;;;5.60;;
71456;SDS011;59263;48.160;11.752;2022-07-23T13:55:15;9.87;;;5.50;;
71456;SDS011;59263;48.160;11.752;2022-07-23T13:57:41;11.43;;;5.43;;
71456;SDS011;59263;48.160;11.752;2022-07-23T14:00:06;11.23;;;6.07;;
71456;SDS011;59263;48.160;11.752;2022-07-23T14:02:34;12.60;;;5.72;;
71456;SDS011;59263;48.160;11.752;2022-07-23T14:05:01;11.77;;;5.50;;
71456;SDS011;59263;48.160;11.752;2022-07-23T14:07:26;10.43;;;5.47;;
71456;SDS011;59263;48.160;11.752;2022-07-23T14:09:52;11.03;;;5.70;;
71456;SDS011;59263;48.160;11.752;2022-07-23T14:12:17;12.68;;;5.68;;
71456;SDS011;59263;48.160;11.752;2022-07-23T14:14:43;10.33;;;5.20;;
71456;SDS011;59263;48.160;11.752;2022-07-23T14:17:08;9.67;;;5.60;;
71456;SDS011;59263;48.160;11.752;2022-07-23T14:19:34;10.63;;;5.87;;
71456;SDS011;59263;48.160;11.752;2022-07-23T14:21:59;12.18;;;5.80;;
71456;SDS011;59263;48.160;11.752;2022-07-23T14:24:25;11.70;;;6.13;;
71456;SDS011;59263;48.160;11.752;2022-07-23T14:26:50;10.87;;;5.50;;
71456;SDS011;59263;48.160;11.752;2022-07-23T14:29:15;10.10;;;5.53;;
71456;SDS011;59263;48.160;11.752;2022-07-23T14:31:41;11.13;;;5.70;;
71456;SDS011;59263;48.160;11.752;2022-07-23T14:34:06;10.90;;;5.90;;
71456;SDS011;59263;48.160;11.752;2022-07-23T14:36:31;12.03;;;5.97;;
71456;SDS011;59263;48.160;11.752;2022-07-23T14:38:57;11.93;;;5.70;;
71456;SDS011;59263;48.160;11.752;2022-07-23T14:41:22;10.17;;;5.60;;
71456;SDS011;59263;48.160;11.752;2022-07-23T14:43:47;10.37;;;5.47;;
71456;SDS011;59263;48.160;11.752;2022-07-23T14:46:14;10.55;;;5.28;;
71456;SDS011;59263;48.160;11.752;2022-07-23T14:48:40;9.52;;;5.20;;
71456;SDS011;59263;48.160;11.752;2022-07-23T14:51:05;11.07;;;5.57;;
71456;SDS011;59263;48.160;11.752;2022-07-23T14:53:31;10.37;;;5.07;;
71456;SDS011;59263;48.160;11.752;2022-07-23T14:55:56;10.73;;;5.43;;
71456;SDS011;59263;48.160;11.752;2022-07-23T14:58:24;9.43;;;5.03;;
71456;SDS011;59263;48.160;11.752;2022-07-23T15:00:50;10.57;;;5.15;;
71456;SDS011;59263;48.160;11.752;2022-07-23T15:03:16;10.33;;;5.20;;
71456;SDS011;59263;48.160;11.752;2022-07-23T15:05:41;11.80;;;4.90;;
71456;SDS011;59263;48.160;11.752;2022-07-23T15:08:07;11.07;;;5.77;;
71456;SDS011;59263;48.160;11.752;2022-07-23T15:10:33;10.70;;;5.13;;
71456;SDS011;59263;48.160;11.752;2022-07-23T15:12:58;11.07;;;5.15;;
71456;SDS011;59263;48.160;11.752;2022-07-23T15:15:23;9.43;;;4.80;;